Time;durP1;ratioP1;P1;durP2;ratioP2;P2;SDS_P1;SDS_P2;PMS_P1;PMS_P2;Temp;Humidity;BMP_temperature;BMP_pressure;BME280_temperature;BME280_humidity;BME280_pressure;Samples;Min_cycle;Max_cycle;Signal;HPM_P1;HPM_P2
2022/01/28 00:00:19;;;;;;;33.90;19.70;;;-3276.20;81.10;;;;;;6213902;28;20203;-58
2022/01/28 00:03:20;;;;;;;33.03;18.10;;;-3276.10;82.10;;;;;;6211603;28;20216;-58
2022/01/28 00:06:21;;;;;;;36.70;20.60;;;-3276.10;81.90;;;;;;6230072;28;20197;-58
2022/01/28 00:09:21;;;;;;;31.90;18.57;;;-3276.10;82.10;;;;;;6234813;28;20191;-58
2022/01/28 00:12:24;;;;;;;37.63;21.37;;;-3276.10;82.30;;;;;;6234501;28;20191;-58
2022/01/28 00:15:48;;;;;;;34.23;22.27;;;-3276.00;82.50;;;;;;6235530;28;20245;-58
2022/01/28 00:38:45;;;;;;;32.07;18.30;;;-3276.00;81.20;;;;;;6226386;28;20249;-60
2022/01/28 00:41:46;;;;;;;24.33;15.23;;;-3276.00;81.50;;;;;;6210185;28;20223;-60
2022/01/28 00:44:46;;;;;;;28.23;16.20;;;-3276.00;81.50;;;;;;6209573;28;20243;-60
2022/01/28 00:47:47;;;;;;;30.03;15.83;;;-3276.00;81.70;;;;;;6209795;28;20191;-60
2022/01/28 00:50:48;;;;;;;26.97;15.00;;;-3276.00;81.70;;;;;;6209688;28;20198;-60
2022/01/28 00:53:49;;;;;;;27.63;15.93;;;-3276.10;81.40;;;;;;6242725;28;20326;-60
2022/01/28 00:56:50;;;;;;;26.93;15.77;;;-3276.00;81.50;;;;;;6243045;28;20231;-60
2022/01/28 01:08:39;;;;;;;25.87;15.17;;;-3275.90;81.70;;;;;;6227167;28;20164;-60
2022/01/28 01:11:41;;;;;;;32.27;16.40;;;-3275.80;81.80;;;;;;6261546;28;20210;-59
2022/01/28 01:14:43;;;;;;;25.37;15.33;;;-3275.90;81.80;;;;;;6225399;28;20199;-59
2022/01/28 01:17:56;;;;;;;38.57;20.57;;;-3275.90;81.50;;;;;;6225847;28;20193;-59
2022/01/28 01:24:01;;;;;;;30.40;20.07;;;-3275.90;81.60;;;;;;6249795;28;20286;-58
2022/01/28 01:27:03;;;;;;;26.60;16.70;;;-3276.00;81.20;;;;;;6233079;28;20204;-60
2022/01/28 01:30:04;;;;;;;28.83;16.97;;;-3276.00;81.00;;;;;;6249476;28;20211;-59
2022/01/28 01:33:05;;;;;;;27.77;15.97;;;-3275.90;81.30;;;;;;6248632;28;20272;-59
2022/01/28 01:36:06;;;;;;;29.10;18.17;;;-3275.80;81.70;;;;;;6241505;28;20202;-60
2022/01/28 01:39:08;;;;;;;28.63;17.03;;;-3275.90;80.90;;;;;;6224307;28;20211;-60
2022/01/28 01:42:37;;;;;;;28.20;17.03;;;-3275.90;81.20;;;;;;6242090;28;20199;-60
2022/01/28 01:55:03;;;;;;;26.20;15.80;;;-3275.80;81.50;;;;;;6247548;28;20198;-60
2022/01/28 01:58:04;;;;;;;25.50;15.00;;;-3275.80;81.50;;;;;;6216124;28;20266;-60
2022/01/28 02:01:05;;;;;;;30.67;15.70;;;-3275.90;81.30;;;;;;6226497;28;20194;-60
2022/01/28 02:04:06;;;;;;;26.63;14.77;;;-3275.80;81.40;;;;;;6216854;28;20207;-60
2022/01/28 02:07:08;;;;;;;26.87;15.60;;;-3275.70;81.50;;;;;;6232297;28;20374;-61
2022/01/28 02:10:09;;;;;;;34.93;19.63;;;-3275.80;81.60;;;;;;6249355;28;20204;-61
2022/01/28 02:13:10;;;;;;;42.27;23.13;;;-3275.70;81.50;;;;;;6284141;28;20198;-61
2022/01/28 02:16:11;;;;;;;41.73;21.80;;;-3275.90;81.60;;;;;;6257382;28;20186;-62
2022/01/28 02:19:12;;;;;;;37.83;21.20;;;-3275.80;81.30;;;;;;6240850;28;20186;-62
2022/01/28 02:22:13;;;;;;;32.07;18.63;;;-3275.90;81.30;;;;;;6224068;28;20271;-61
2022/01/28 02:25:44;;;;;;;37.00;19.63;;;-3275.70;81.50;;;;;;6240207;28;20233;-61
2022/01/28 02:28:49;;;;;;;34.07;16.73;;;-3275.90;80.90;;;;;;6240563;28;20186;-62
2022/01/28 02:31:50;;;;;;;27.13;16.50;;;-3275.90;80.80;;;;;;6247588;28;20192;-62
2022/01/28 02:34:51;;;;;;;34.27;17.97;;;-3275.80;81.30;;;;;;6232513;28;20203;-62
2022/01/28 02:37:51;;;;;;;29.77;15.97;;;-3275.80;81.50;;;;;;6232684;28;20214;-62
2022/01/28 02:40:58;;;;;;;28.13;15.47;;;-3275.80;82.10;;;;;;6229847;28;20200;-62
2022/01/28 02:44:10;;;;;;;26.80;14.70;;;-3275.90;82.50;;;;;;6257530;28;20247;-62
2022/01/28 02:47:17;;;;;;;22.67;11.97;;;-3276.10;82.90;;;;;;6263598;28;20217;-62
2022/01/28 02:50:18;;;;;;;17.17;10.07;;;-3276.30;82.80;;;;;;6226740;28;20212;-61
2022/01/28 02:53:25;;;;;;;10.60;4.87;;;-3276.70;82.70;;;;;;6223978;28;20193;-61
2022/01/28 02:59:30;;;;;;;0.70;0.50;;;1.30;82.00;;;;;;6277418;28;20193;-61
2022/01/28 03:02:30;;;;;;;0.20;0.20;;;2.40;78.40;;;;;;6245107;28;20197;-62
2022/01/28 03:05:33;;;;;;;1.03;0.20;;;3.80;73.80;;;;;;6244233;28;20275;-62
2022/01/28 03:08:34;;;;;;;0.20;0.20;;;4.60;70.80;;;;;;6245415;28;20174;-62
2022/01/28 03:21:00;;;;;;;0.30;0.30;;;5.70;66.30;;;;;;6223184;28;20212;-62
2022/01/28 03:24:02;;;;;;;0.50;0.40;;;5.90;65.80;;;;;;6237385;28;20218;-62
2022/01/28 03:27:09;;;;;;;0.20;0.20;;;5.80;65.80;;;;;;6226511;28;20187;-62
2022/01/28 03:30:10;;;;;;;0.30;0.30;;;5.80;66.10;;;;;;6253834;28;20201;-62
2022/01/28 03:33:11;;;;;;;0.30;0.30;;;5.80;66.50;;;;;;6238246;28;20200;-62
2022/01/28 03:36:13;;;;;;;0.30;0.30;;;5.70;67.20;;;;;;6241877;28;20226;-62
2022/01/28 03:39:14;;;;;;;0.20;0.20;;;5.70;67.90;;;;;;6236392;28;20241;-62
2022/01/28 03:42:15;;;;;;;0.20;0.20;;;5.60;68.50;;;;;;6227833;28;20243;-62
2022/01/28 03:45:17;;;;;;;0.40;0.20;;;5.60;68.60;;;;;;6238717;28;20221;-62
2022/01/28 03:48:18;;;;;;;0.27;0.13;;;5.40;68.70;;;;;;6241584;28;20243;-62
2022/01/28 03:51:19;;;;;;;0.17;0.17;;;5.40;68.50;;;;;;6227049;28;20206;-62
2022/01/28 03:54:20;;;;;;;0.10;0.10;;;5.40;68.30;;;;;;6237387;28;20189;-62
2022/01/28 03:57:21;;;;;;;1.17;0.17;;;5.40;68.10;;;;;;6243712;28;20197;-62
2022/01/28 04:00:26;;;;;;;0.10;0.10;;;5.30;67.90;;;;;;6243667;28;20206;-62
2022/01/28 04:13:10;;;;;;;0.20;0.17;;;5.30;67.60;;;;;;6272007;28;20193;-61
2022/01/28 04:19:21;;;;;;;0.60;0.37;;;5.30;67.00;;;;;;6268395;28;20286;-61
2022/01/28 04:22:22;;;;;;;0.20;0.13;;;5.30;66.80;;;;;;6256296;28;20201;-61
2022/01/28 04:25:23;;;;;;;0.50;0.20;;;5.30;66.60;;;;;;6238057;28;20290;-61
2022/01/28 04:28:23;;;;;;;0.10;0.10;;;5.30;66.80;;;;;;6237634;28;20230;-61
2022/01/28 04:31:24;;;;;;;0.60;0.20;;;5.30;66.70;;;;;;6249706;28;20189;-61
2022/01/28 04:34:25;;;;;;;0.10;0.10;;;5.30;66.30;;;;;;6242748;28;20255;-61
2022/01/28 04:40:34;;;;;;;0.10;0.10;;;5.50;64.90;;;;;;6221618;28;20198;-60
2022/01/28 04:43:47;;;;;;;0.23;0.20;;;5.60;64.70;;;;;;6265166;28;20391;-60
2022/01/28 04:46:59;;;;;;;0.10;0.10;;;5.50;65.50;;;;;;6219512;28;20201;-62
2022/01/28 05:00:09;;;;;;;0.10;0.10;;;5.00;68.00;;;;;;6237792;28;20670;-62
2022/01/28 05:07:05;;;;;;;0.20;0.20;;;4.70;70.60;;;;;;6259040;28;20221;-62
2022/01/28 05:10:39;;;;;;;0.20;0.20;;;4.60;71.30;;;;;;6270905;28;20206;-62
2022/01/28 05:14:01;;;;;;;0.23;0.23;;;4.40;71.50;;;;;;6244178;28;20248;-62
2022/01/28 05:23:33;;;;;;;0.10;0.10;;;4.30;71.50;;;;;;6235543;28;20214;-62
2022/01/28 05:29:35;;;;;;;0.10;0.10;;;4.20;71.70;;;;;;6248640;28;20221;-62
2022/01/28 05:32:36;;;;;;;0.10;0.10;;;4.20;71.80;;;;;;6232721;28;20200;-60
2022/01/28 05:35:37;;;;;;;0.10;0.10;;;4.00;71.70;;;;;;6226331;28;20194;-60
2022/01/28 05:38:38;;;;;;;0.10;0.10;;;4.00;71.30;;;;;;6254162;28;20205;-60
2022/01/28 05:41:39;;;;;;;0.30;0.30;;;4.10;70.90;;;;;;6276849;28;20221;-60
2022/01/28 05:44:40;;;;;;;0.30;0.30;;;4.10;70.80;;;;;;6250875;28;20247;-60
2022/01/28 05:47:41;;;;;;;0.33;0.33;;;4.10;70.70;;;;;;6236359;28;20189;-60
2022/01/28 05:50:42;;;;;;;0.10;0.10;;;4.10;70.10;;;;;;6253604;28;20202;-60
2022/01/28 05:53:43;;;;;;;0.60;0.30;;;4.20;69.30;;;;;;6256949;28;20614;-60
2022/01/28 05:56:43;;;;;;;0.47;0.27;;;4.30;68.80;;;;;;6240518;28;20251;-60
2022/01/28 05:59:44;;;;;;;0.47;0.30;;;4.30;68.60;;;;;;6256739;28;20254;-60
2022/01/28 06:02:45;;;;;;;0.20;0.20;;;4.40;68.20;;;;;;6226854;28;20206;-60
2022/01/28 06:05:48;;;;;;;0.37;0.30;;;4.30;68.60;;;;;;6270659;28;20193;-60
2022/01/28 06:08:51;;;;;;;0.20;0.20;;;4.30;68.80;;;;;;6232391;28;20204;-60
2022/01/28 06:11:52;;;;;;;1.23;0.30;;;4.10;69.30;;;;;;6241830;28;20380;-59
2022/01/28 06:14:53;;;;;;;0.30;0.30;;;4.10;69.90;;;;;;6223185;28;20194;-60
2022/01/28 06:17:54;;;;;;;0.30;0.30;;;4.00;70.40;;;;;;6230705;28;20194;-60
2022/01/28 06:20:54;;;;;;;0.30;0.30;;;3.90;70.90;;;;;;6238896;28;20282;-60
2022/01/28 06:23:56;;;;;;;0.40;0.30;;;3.90;71.20;;;;;;6250772;28;20206;-59
2022/01/28 06:26:56;;;;;;;0.30;0.30;;;3.70;71.20;;;;;;6239840;28;20201;-59
2022/01/28 06:29:57;;;;;;;0.70;0.47;;;3.50;71.50;;;;;;6239423;28;20304;-60
2022/01/28 06:32:58;;;;;;;0.20;0.20;;;3.40;72.30;;;;;;6252838;28;20288;-60
2022/01/28 06:35:59;;;;;;;0.20;0.20;;;3.40;72.40;;;;;;6239080;28;20280;-60
2022/01/28 06:38:59;;;;;;;0.40;0.30;;;3.30;72.70;;;;;;6255953;28;20197;-60
2022/01/28 06:42:00;;;;;;;0.87;0.30;;;3.30;73.40;;;;;;6235668;28;20209;-60
2022/01/28 06:45:03;;;;;;;0.17;0.17;;;3.20;73.70;;;;;;6233706;28;20324;-60
2022/01/28 06:48:07;;;;;;;0.43;0.40;;;3.20;73.70;;;;;;6271312;28;20205;-60
2022/01/28 06:51:08;;;;;;;0.50;0.47;;;3.20;73.60;;;;;;6259546;28;20325;-60
2022/01/28 06:54:09;;;;;;;0.73;0.53;;;3.10;73.50;;;;;;6255088;28;20209;-61
2022/01/28 06:57:10;;;;;;;0.67;0.40;;;3.00;73.70;;;;;;6238784;28;20285;-60
2022/01/28 07:00:12;;;;;;;0.40;0.40;;;3.00;73.90;;;;;;6245696;28;20194;-60
2022/01/28 07:03:14;;;;;;;0.60;0.60;;;2.90;74.10;;;;;;6248460;28;20210;-60
2022/01/28 07:06:15;;;;;;;0.60;0.60;;;2.90;74.60;;;;;;6245833;28;20266;-60
2022/01/28 07:09:17;;;;;;;0.93;0.60;;;2.90;74.70;;;;;;6229729;28;20197;-60
2022/01/28 07:12:18;;;;;;;0.50;0.50;;;2.80;74.90;;;;;;6237696;28;20275;-60
2022/01/28 07:15:19;;;;;;;1.20;0.40;;;2.80;75.00;;;;;;6253113;28;20205;-60
2022/01/28 07:18:20;;;;;;;1.90;0.30;;;2.90;74.90;;;;;;6254934;28;20222;-60
2022/01/28 07:21:21;;;;;;;0.43;0.40;;;2.80;75.00;;;;;;6236060;28;20200;-60
2022/01/28 07:24:21;;;;;;;0.67;0.60;;;2.80;74.80;;;;;;6246208;28;20224;-60
2022/01/28 07:27:22;;;;;;;0.93;0.70;;;2.80;74.70;;;;;;6217659;28;20194;-60
2022/01/28 07:30:23;;;;;;;2.47;1.20;;;2.80;75.00;;;;;;6238203;28;20192;-60
2022/01/28 07:33:24;;;;;;;1.30;1.10;;;2.70;75.10;;;;;;6240180;28;20193;-60
2022/01/28 07:36:25;;;;;;;1.40;1.00;;;2.70;75.40;;;;;;6246915;28;20198;-60
2022/01/28 07:39:27;;;;;;;0.87;0.87;;;2.70;75.30;;;;;;6240285;28;20224;-60
2022/01/28 07:42:32;;;;;;;1.00;0.60;;;2.70;75.80;;;;;;6233896;28;20249;-60
2022/01/28 07:45:33;;;;;;;1.03;0.80;;;2.70;75.70;;;;;;6237653;28;20339;-60
2022/01/28 07:48:34;;;;;;;1.30;0.80;;;2.70;75.80;;;;;;6225737;28;20194;-60
2022/01/28 07:51:36;;;;;;;0.87;0.87;;;2.80;75.90;;;;;;6232220;28;20186;-60
2022/01/28 07:54:44;;;;;;;1.60;0.77;;;3.00;75.70;;;;;;6240112;28;20269;-60
2022/01/28 07:57:45;;;;;;;1.77;1.10;;;3.30;74.50;;;;;;6239576;28;20194;-60
2022/01/28 08:00:46;;;;;;;1.27;1.17;;;3.60;73.40;;;;;;6261206;28;20226;-60
2022/01/28 08:03:47;;;;;;;0.60;0.60;;;3.80;72.30;;;;;;6256953;28;20213;-60
2022/01/28 08:06:48;;;;;;;1.20;0.77;;;3.90;72.30;;;;;;6248709;28;20186;-60
2022/01/28 08:09:48;;;;;;;0.93;0.80;;;3.90;71.90;;;;;;6249008;28;20186;-60
2022/01/28 08:12:52;;;;;;;0.60;0.60;;;4.00;71.90;;;;;;6232321;28;20197;-60
2022/01/28 08:15:53;;;;;;;0.40;0.40;;;4.10;70.50;;;;;;6232092;28;20182;-60
2022/01/28 08:18:53;;;;;;;0.60;0.60;;;4.30;68.40;;;;;;6233128;28;20173;-60
2022/01/28 08:21:54;;;;;;;0.50;0.50;;;4.40;66.80;;;;;;6249195;28;20198;-60
2022/01/28 08:24:55;;;;;;;0.57;0.30;;;4.80;62.80;;;;;;6256369;28;20317;-60
2022/01/28 08:27:56;;;;;;;1.47;0.40;;;5.20;60.00;;;;;;6240969;28;20291;-60
2022/01/28 08:30:56;;;;;;;0.33;0.33;;;5.50;59.00;;;;;;6256607;28;20185;-60
2022/01/28 08:33:57;;;;;;;1.37;0.40;;;5.70;57.70;;;;;;6256304;28;20190;-60
2022/01/28 08:37:03;;;;;;;0.70;0.43;;;5.80;58.50;;;;;;6230650;28;20229;-60
2022/01/28 08:40:06;;;;;;;0.30;0.30;;;6.00;58.00;;;;;;6238623;28;20772;-60
2022/01/28 08:43:07;;;;;;;0.20;0.20;;;6.00;58.80;;;;;;6240453;28;20249;-60
2022/01/28 08:46:09;;;;;;;1.07;0.73;;;5.90;58.90;;;;;;6257267;28;20228;-60
2022/01/28 08:49:10;;;;;;;0.20;0.20;;;6.00;58.80;;;;;;6256921;28;20263;-60
2022/01/28 08:52:11;;;;;;;0.20;0.20;;;5.90;60.10;;;;;;6255737;28;20192;-60
2022/01/28 08:55:12;;;;;;;0.30;0.30;;;5.80;60.90;;;;;;6239287;28;20272;-60
2022/01/28 08:58:13;;;;;;;0.60;0.60;;;5.80;60.90;;;;;;6255992;28;20185;-60
2022/01/28 09:01:13;;;;;;;0.80;0.40;;;5.60;61.40;;;;;;6254210;28;20189;-60
2022/01/28 09:04:14;;;;;;;0.30;0.30;;;5.50;61.50;;;;;;6254939;28;20221;-60
2022/01/28 09:07:18;;;;;;;0.57;0.37;;;5.40;61.20;;;;;;6273358;28;20214;-60
2022/01/28 09:10:23;;;;;;;0.50;0.40;;;5.40;61.40;;;;;;6230706;28;20212;-60
2022/01/28 09:13:29;;;;;;;0.30;0.30;;;5.40;61.60;;;;;;6247958;28;20228;-60
2022/01/28 09:16:30;;;;;;;0.40;0.30;;;5.40;61.60;;;;;;6255496;28;20182;-60
2022/01/28 09:19:31;;;;;;;0.40;0.23;;;5.30;61.30;;;;;;6237934;28;20238;-60
2022/01/28 09:22:32;;;;;;;2.00;0.30;;;5.40;60.80;;;;;;6256715;28;20185;-60
2022/01/28 09:25:36;;;;;;;1.67;0.50;;;5.30;60.00;;;;;;6240125;28;20231;-60
2022/01/28 09:28:36;;;;;;;0.43;0.30;;;5.40;59.40;;;;;;6248273;28;20198;-60
2022/01/28 09:31:37;;;;;;;0.30;0.30;;;5.40;59.50;;;;;;6231085;28;20186;-60
2022/01/28 09:34:38;;;;;;;0.30;0.30;;;5.40;59.20;;;;;;6230122;28;20287;-60
2022/01/28 09:37:39;;;;;;;0.60;0.20;;;5.40;59.50;;;;;;6270818;28;20232;-60
2022/01/28 09:40:40;;;;;;;0.23;0.23;;;5.40;59.40;;;;;;6255092;28;20206;-60
2022/01/28 09:43:45;;;;;;;0.50;0.30;;;5.50;58.80;;;;;;6246101;28;20241;-60
2022/01/28 09:46:47;;;;;;;0.20;0.20;;;5.50;58.70;;;;;;6238941;28;20206;-60
2022/01/28 09:49:48;;;;;;;1.27;0.43;;;5.60;58.70;;;;;;6229361;28;20194;-60
2022/01/28 09:52:51;;;;;;;0.23;0.23;;;5.60;59.00;;;;;;6229234;28;20208;-60
2022/01/28 09:55:52;;;;;;;0.20;0.20;;;5.70;58.30;;;;;;6229796;28;20194;-60
2022/01/28 09:58:53;;;;;;;0.60;0.30;;;5.60;58.60;;;;;;6246696;28;20192;-60
2022/01/28 10:01:55;;;;;;;0.40;0.20;;;5.70;57.10;;;;;;6246204;28;20189;-60
2022/01/28 10:04:55;;;;;;;0.20;0.20;;;5.80;57.10;;;;;;6296234;28;20236;-60
2022/01/28 10:08:23;;;;;;;0.33;0.33;;;5.80;57.30;;;;;;6271418;28;20186;-60
2022/01/28 10:11:24;;;;;;;0.27;0.27;;;5.90;54.60;;;;;;6246466;28;20193;-60
2022/01/28 10:14:27;;;;;;;0.30;0.30;;;5.90;54.00;;;;;;6231351;28;20193;-60
2022/01/28 10:17:55;;;;;;;2.10;0.20;;;6.00;53.10;;;;;;6254417;28;20197;-60
2022/01/28 10:20:55;;;;;;;0.33;0.33;;;6.20;51.50;;;;;;6253721;28;20182;-60
2022/01/28 10:24:21;;;;;;;0.40;0.27;;;6.20;50.80;;;;;;6238524;28;20244;-60
2022/01/28 10:27:23;;;;;;;0.87;0.40;;;6.30;50.10;;;;;;6253951;28;20186;-59
2022/01/28 10:30:24;;;;;;;1.00;0.50;;;6.30;50.30;;;;;;6237795;28;20190;-60
2022/01/28 10:33:25;;;;;;;0.30;0.20;;;6.30;50.40;;;;;;6237591;28;20201;-60
2022/01/28 10:36:25;;;;;;;0.80;0.50;;;6.60;49.70;;;;;;6250451;28;20197;-60
2022/01/28 10:39:26;;;;;;;0.40;0.40;;;6.70;50.60;;;;;;6246028;28;20203;-60
2022/01/28 10:42:38;;;;;;;1.90;0.50;;;7.00;49.40;;;;;;6230572;28;20236;-60
2022/01/28 10:45:39;;;;;;;2.23;0.40;;;7.20;48.80;;;;;;6246662;28;20293;-60
2022/01/28 10:48:58;;;;;;;0.73;0.30;;;7.40;47.50;;;;;;6218204;28;20193;-60
2022/01/28 10:52:08;;;;;;;0.20;0.20;;;7.40;48.10;;;;;;6237906;28;20293;-60
2022/01/28 10:55:16;;;;;;;0.23;0.20;;;7.50;47.90;;;;;;6237441;28;20245;-60
2022/01/28 10:58:20;;;;;;;0.30;0.30;;;7.30;47.90;;;;;;6237340;28;20209;-60
2022/01/28 11:01:21;;;;;;;0.87;0.40;;;7.30;48.10;;;;;;6233804;28;20189;-60
2022/01/28 11:04:22;;;;;;;0.73;0.43;;;7.20;48.70;;;;;;6257036;28;20729;-60
2022/01/28 11:07:26;;;;;;;1.47;0.57;;;7.20;48.70;;;;;;6254418;28;20189;-60
2022/01/28 11:10:28;;;;;;;0.73;0.30;;;7.20;49.30;;;;;;6243216;28;20194;-60
2022/01/28 11:13:29;;;;;;;0.60;0.40;;;7.30;48.50;;;;;;6258254;28;20282;-60
2022/01/28 11:16:30;;;;;;;0.20;0.20;;;7.10;49.10;;;;;;6259334;28;20205;-60
2022/01/28 11:19:36;;;;;;;0.50;0.37;;;7.10;49.60;;;;;;6241602;28;20201;-60
2022/01/28 11:22:52;;;;;;;0.57;0.20;;;7.10;49.10;;;;;;6249615;28;20281;-60
2022/01/28 11:26:14;;;;;;;0.20;0.20;;;7.00;49.20;;;;;;6268260;28;20672;-60
2022/01/28 11:29:26;;;;;;;0.63;0.20;;;7.10;49.40;;;;;;6251141;28;20210;-60
2022/01/28 11:32:27;;;;;;;1.07;0.50;;;7.30;49.70;;;;;;6234703;28;20210;-60
2022/01/28 11:35:32;;;;;;;1.60;0.50;;;7.40;48.90;;;;;;6235142;28;20217;-60
2022/01/28 11:38:36;;;;;;;1.47;0.30;;;7.60;48.10;;;;;;6242268;28;20194;-60
2022/01/28 11:42:04;;;;;;;0.57;0.40;;;7.80;44.40;;;;;;6242290;28;20193;-60
2022/01/28 11:45:07;;;;;;;0.50;0.40;;;7.80;45.60;;;;;;6252963;28;20238;-60
2022/01/28 11:48:08;;;;;;;0.23;0.20;;;7.70;47.50;;;;;;6252213;28;20189;-61
2022/01/28 11:51:15;;;;;;;0.30;0.30;;;7.30;51.40;;;;;;6235296;28;20186;-59
2022/01/28 11:54:20;;;;;;;0.30;0.27;;;7.30;52.10;;;;;;6235979;28;20171;-60
2022/01/28 11:57:24;;;;;;;0.23;0.23;;;7.10;52.80;;;;;;6219552;28;20202;-60
2022/01/28 12:00:32;;;;;;;0.50;0.37;;;6.90;52.50;;;;;;6246924;28;20186;-60
2022/01/28 12:03:36;;;;;;;0.30;0.30;;;7.00;52.00;;;;;;6251421;28;20194;-60
2022/01/28 12:06:38;;;;;;;0.83;0.33;;;6.90;51.90;;;;;;6243199;28;20190;-60
2022/01/28 12:09:45;;;;;;;0.20;0.20;;;6.80;51.00;;;;;;6236354;28;20190;-60
2022/01/28 12:12:57;;;;;;;0.37;0.37;;;6.80;51.10;;;;;;6283525;28;20185;-60
2022/01/28 12:16:02;;;;;;;1.57;0.40;;;7.00;49.40;;;;;;6242714;28;20275;-60
2022/01/28 12:19:15;;;;;;;0.30;0.20;;;7.20;46.90;;;;;;6249954;28;20194;-60
2022/01/28 12:22:17;;;;;;;0.10;0.10;;;7.20;46.00;;;;;;6239353;28;20292;-60
2022/01/28 12:25:46;;;;;;;0.27;0.27;;;7.20;45.50;;;;;;6247016;28;20356;-59
2022/01/28 12:28:49;;;;;;;1.13;0.20;;;7.50;44.20;;;;;;6228363;28;20186;-60
2022/01/28 12:31:58;;;;;;;0.40;0.40;;;7.50;43.90;;;;;;6278341;28;20192;-60
2022/01/28 12:34:59;;;;;;;0.30;0.30;;;7.70;45.10;;;;;;6242668;28;20201;-60
2022/01/28 12:38:02;;;;;;;0.70;0.40;;;7.70;43.50;;;;;;6233382;28;20700;-60
2022/01/28 12:41:07;;;;;;;1.83;0.57;;;7.70;43.80;;;;;;6260283;28;20194;-60
2022/01/28 12:44:14;;;;;;;1.47;0.40;;;7.90;43.30;;;;;;6228607;28;20261;-60
2022/01/28 12:47:16;;;;;;;0.53;0.50;;;7.90;42.70;;;;;;6249466;28;20182;-60
2022/01/28 12:50:19;;;;;;;2.63;0.40;;;8.00;43.20;;;;;;6249076;28;20206;-60
2022/01/28 12:53:30;;;;;;;1.33;0.50;;;7.80;42.50;;;;;;6271106;28;20191;-60
2022/01/28 12:56:35;;;;;;;0.57;0.40;;;7.80;43.90;;;;;;6262368;28;20190;-61
2022/01/28 12:59:37;;;;;;;0.57;0.33;;;8.00;44.10;;;;;;6250235;28;20197;-60
2022/01/28 13:02:40;;;;;;;0.67;0.40;;;8.10;43.60;;;;;;6263194;28;20192;-60
2022/01/28 13:05:53;;;;;;;4.47;0.53;;;8.10;43.10;;;;;;6283087;28;20228;-60
2022/01/28 13:08:56;;;;;;;0.37;0.20;;;8.30;43.10;;;;;;6281326;28;20182;-59
2022/01/28 13:12:00;;;;;;;2.63;0.30;;;8.60;43.50;;;;;;6263418;28;20200;-58
2022/01/28 13:15:09;;;;;;;0.20;0.20;;;8.80;43.80;;;;;;6236962;28;20194;-59
2022/01/28 13:18:10;;;;;;;0.40;0.40;;;9.00;42.30;;;;;;6245186;28;20191;-59
2022/01/28 13:21:11;;;;;;;0.30;0.30;;;9.10;43.00;;;;;;6231143;28;20190;-58
2022/01/28 13:24:18;;;;;;;0.30;0.23;;;9.20;42.40;;;;;;6253039;28;20231;-60
2022/01/28 13:27:21;;;;;;;1.30;0.30;;;9.00;43.60;;;;;;6231187;28;20195;-60
2022/01/28 13:30:22;;;;;;;0.23;0.23;;;8.80;43.50;;;;;;6246283;28;20201;-60
2022/01/28 13:33:31;;;;;;;0.20;0.20;;;8.60;44.40;;;;;;6256089;28;20182;-59
2022/01/28 13:36:52;;;;;;;0.40;0.40;;;8.50;44.60;;;;;;6218547;28;20333;-60
2022/01/28 13:39:53;;;;;;;0.30;0.23;;;8.20;45.70;;;;;;6231268;28;20172;-60
2022/01/28 13:43:15;;;;;;;0.20;0.20;;;8.10;46.10;;;;;;6231413;28;20248;-59
2022/01/28 13:46:15;;;;;;;0.33;0.30;;;7.50;47.70;;;;;;6249111;28;20193;-60
2022/01/28 13:49:16;;;;;;;0.30;0.27;;;7.50;48.80;;;;;;6248887;28;20193;-59
2022/01/28 13:53:07;;;;;;;0.70;0.30;;;7.40;48.60;;;;;;6231066;28;20182;-59
2022/01/28 13:55:43;;;;;;;0.20;0.20;;;7.30;48.90;;;;;;6247225;28;20187;-59
2022/01/28 13:58:54;;;;;;;0.20;0.20;;;8.00;47.40;;;;;;6232158;28;20192;-59
2022/01/28 14:01:58;;;;;;;0.37;0.30;;;8.90;45.50;;;;;;6229625;28;20244;-60
2022/01/28 14:04:59;;;;;;;0.23;0.20;;;8.90;45.10;;;;;;6229325;28;20214;-60
2022/01/28 14:08:00;;;;;;;1.10;0.37;;;9.80;43.00;;;;;;6243447;28;20281;-60
2022/01/28 14:11:26;;;;;;;0.20;0.10;;;10.70;40.30;;;;;;6236080;28;20201;-60
2022/01/28 14:14:44;;;;;;;0.30;0.20;;;12.10;37.30;;;;;;6246422;28;20196;-60
2022/01/28 14:17:45;;;;;;;0.27;0.17;;;12.50;36.30;;;;;;6230068;28;20203;-60
2022/01/28 14:20:46;;;;;;;1.13;0.50;;;12.80;35.90;;;;;;6247372;28;20356;-58
2022/01/28 14:23:47;;;;;;;0.30;0.20;;;12.80;35.50;;;;;;6230402;28;20351;-58
2022/01/28 14:33:16;;;;;;;0.97;0.50;;;12.20;34.80;;;;;;6233553;28;20190;-58
2022/01/28 14:36:18;;;;;;;0.60;0.60;;;12.20;35.20;;;;;;6235685;28;20194;-58
2022/01/28 14:39:19;;;;;;;0.30;0.30;;;12.80;33.80;;;;;;6272074;28;20191;-61
2022/01/28 14:42:20;;;;;;;5.43;1.10;;;12.90;33.90;;;;;;6251393;28;20223;-61
2022/01/28 14:45:20;;;;;;;0.50;0.30;;;12.40;33.20;;;;;;6259885;28;20225;-62
2022/01/28 14:48:22;;;;;;;0.23;0.23;;;11.20;33.70;;;;;;6243323;28;20206;-62
2022/01/28 14:51:24;;;;;;;0.40;0.30;;;10.90;34.60;;;;;;6234376;28;20281;-61
2022/01/28 14:54:28;;;;;;;0.53;0.37;;;11.10;33.90;;;;;;6235900;28;20189;-61
2022/01/28 14:57:29;;;;;;;1.60;0.43;;;10.90;34.30;;;;;;6235708;28;20229;-61
2022/01/28 15:00:30;;;;;;;0.30;0.30;;;11.40;34.00;;;;;;6223914;28;20193;-61
2022/01/28 15:03:31;;;;;;;0.40;0.30;;;12.70;31.90;;;;;;6259080;28;20375;-62
2022/01/28 15:06:31;;;;;;;0.30;0.20;;;13.70;30.90;;;;;;6256473;28;20229;-61
2022/01/28 15:09:39;;;;;;;0.57;0.43;;;13.30;30.10;;;;;;6258446;28;20656;-61
2022/01/28 15:12:40;;;;;;;0.90;0.40;;;13.00;31.20;;;;;;6242867;28;20205;-63
2022/01/28 15:15:41;;;;;;;0.70;0.50;;;12.80;31.60;;;;;;6233800;28;20212;-58
2022/01/28 15:18:42;;;;;;;0.83;0.60;;;11.80;33.20;;;;;;6257703;28;20205;-58
2022/01/28 15:21:48;;;;;;;1.23;0.60;;;11.10;34.60;;;;;;6243998;28;20243;-58
2022/01/28 15:24:49;;;;;;;0.77;0.57;;;10.40;36.00;;;;;;6236256;28;20311;-58
2022/01/28 15:27:51;;;;;;;0.83;0.40;;;9.70;37.50;;;;;;6226446;28;20196;-58
2022/01/28 15:34:45;;;;;;;0.50;0.40;;;8.80;39.00;;;;;;6243502;28;20202;-58
2022/01/28 15:37:32;;;;;;;0.87;0.30;;;8.30;41.00;;;;;;6273648;28;20202;-58
2022/01/28 15:40:33;;;;;;;2.17;1.80;;;8.00;42.30;;;;;;6260807;28;20189;-59
2022/01/28 15:43:35;;;;;;;1.43;1.33;;;7.70;42.90;;;;;;6255528;28;20242;-59
2022/01/28 15:46:40;;;;;;;1.47;1.10;;;7.40;43.80;;;;;;6233683;28;20217;-58
2022/01/28 15:49:41;;;;;;;0.80;0.80;;;7.20;44.90;;;;;;6261571;28;20193;-58
2022/01/28 15:52:42;;;;;;;0.80;0.80;;;6.90;45.80;;;;;;6240475;28;20190;-58
2022/01/28 15:55:44;;;;;;;0.53;0.50;;;6.70;44.70;;;;;;6243400;28;20216;-58
2022/01/28 15:58:45;;;;;;;2.40;0.50;;;6.50;43.90;;;;;;6218887;28;20294;-58
2022/01/28 16:01:46;;;;;;;0.43;0.43;;;6.30;44.20;;;;;;6219600;28;20186;-58
2022/01/28 16:04:47;;;;;;;0.57;0.53;;;6.30;42.60;;;;;;6258260;28;20240;-58
2022/01/28 16:07:48;;;;;;;0.97;0.77;;;5.90;42.10;;;;;;6260146;28;20186;-58
2022/01/28 16:11:13;;;;;;;0.63;0.60;;;5.80;42.00;;;;;;6243347;28;20185;-60
2022/01/28 16:14:15;;;;;;;0.77;0.50;;;5.70;41.00;;;;;;6257326;28;20268;-60
2022/01/28 16:17:37;;;;;;;0.60;0.30;;;5.70;40.50;;;;;;6233334;28;20198;-60
2022/01/28 16:20:38;;;;;;;2.47;0.90;;;5.70;40.60;;;;;;6261092;28;20217;-60
2022/01/28 16:23:40;;;;;;;0.60;0.60;;;5.50;40.80;;;;;;6243322;28;20211;-60
2022/01/28 16:26:40;;;;;;;0.80;0.60;;;5.40;41.20;;;;;;6225137;28;20194;-61
2022/01/28 16:29:42;;;;;;;1.80;0.70;;;5.40;41.30;;;;;;6219049;28;20198;-61
2022/01/28 16:32:43;;;;;;;0.93;0.50;;;5.40;41.50;;;;;;6242796;28;20201;-62
2022/01/28 16:35:44;;;;;;;0.83;0.47;;;5.30;41.10;;;;;;6242471;28;20276;-62
2022/01/28 16:38:45;;;;;;;2.03;0.53;;;5.30;41.30;;;;;;6243071;28;20227;-62
2022/01/28 16:41:47;;;;;;;0.30;0.30;;;5.30;41.00;;;;;;6247497;28;20203;-63
2022/01/28 16:44:53;;;;;;;0.50;0.50;;;5.30;41.20;;;;;;6259342;28;20249;-63
2022/01/28 16:47:54;;;;;;;2.23;0.70;;;5.20;41.80;;;;;;6218559;28;20190;-63
2022/01/28 16:50:55;;;;;;;1.47;0.40;;;5.10;41.70;;;;;;6202194;28;20197;-63
2022/01/28 16:53:56;;;;;;;0.40;0.40;;;5.10;41.80;;;;;;6234418;28;20214;-62
2022/01/28 16:56:56;;;;;;;0.60;0.50;;;5.00;41.90;;;;;;6233573;28;20212;-61
2022/01/28 16:59:57;;;;;;;0.97;0.70;;;5.00;42.60;;;;;;6241407;28;20195;-62
2022/01/28 17:02:58;;;;;;;0.60;0.40;;;5.00;42.70;;;;;;6267539;28;20192;-62
2022/01/28 17:05:59;;;;;;;2.57;0.50;;;4.80;43.00;;;;;;6273444;28;20205;-61
2022/01/28 17:09:00;;;;;;;0.63;0.63;;;4.80;43.10;;;;;;6239541;28;20204;-61
2022/01/28 17:12:17;;;;;;;0.77;0.53;;;4.80;43.20;;;;;;6248531;28;20221;-62
2022/01/28 17:15:17;;;;;;;3.37;0.73;;;4.80;43.60;;;;;;6243967;28;20285;-62
2022/01/28 17:18:18;;;;;;;1.53;0.63;;;4.80;43.60;;;;;;6262607;28;20197;-61
2022/01/28 17:21:20;;;;;;;0.77;0.30;;;4.60;43.50;;;;;;6249985;28;20202;-61
2022/01/28 17:24:21;;;;;;;0.60;0.60;;;4.60;43.70;;;;;;6249629;28;20228;-61
2022/01/28 17:27:22;;;;;;;0.53;0.40;;;4.60;43.60;;;;;;6260304;28;20192;-62
2022/01/28 17:30:25;;;;;;;0.87;0.50;;;4.50;44.10;;;;;;6240732;28;20284;-61
2022/01/28 17:33:26;;;;;;;1.17;0.50;;;4.60;43.90;;;;;;6240294;28;20212;-63
2022/01/28 17:36:27;;;;;;;0.73;0.57;;;4.50;43.90;;;;;;6241271;28;20188;-61
2022/01/28 17:39:28;;;;;;;1.20;0.60;;;4.50;43.80;;;;;;6257921;28;20182;-63